sensor_id;sensor_type;location;lat;lon;timestamp;pressure;altitude;pressure_sealevel;temperature;humidity
43488;BME280;29078;41.932;25.554;2024-02-16T00:00:01;100116.47;;;10.05;46.96
43488;BME280;29078;41.932;25.554;2024-02-16T00:02:26;100116.47;;;10.05;46.95
43488;BME280;29078;41.932;25.554;2024-02-16T00:04:52;100118.44;;;10.03;46.97
43488;BME280;29078;41.932;25.554;2024-02-16T00:07:17;100117.94;;;10.00;46.66
43488;BME280;29078;41.932;25.554;2024-02-16T00:09:42;100116.13;;;10.00;46.97
43488;BME280;29078;41.932;25.554;2024-02-16T00:12:07;100109.19;;;9.99;46.79
43488;BME280;29078;41.932;25.554;2024-02-16T00:14:33;100114.47;;;9.99;46.86
43488;BME280;29078;41.932;25.554;2024-02-16T00:16:58;100114.63;;;9.98;47.46
43488;BME280;29078;41.932;25.554;2024-02-16T00:19:24;100111.84;;;9.99;47.02
43488;BME280;29078;41.932;25.554;2024-02-16T00:21:50;100122.69;;;9.96;45.67
43488;BME280;29078;41.932;25.554;2024-02-16T00:24:16;100123.53;;;9.97;46.67
43488;BME280;29078;41.932;25.554;2024-02-16T00:26:41;100126.16;;;9.97;46.66
43488;BME280;29078;41.932;25.554;2024-02-16T00:29:08;100122.69;;;9.96;46.67
43488;BME280;29078;41.932;25.554;2024-02-16T00:31:33;100130.47;;;9.98;46.55
43488;BME280;29078;41.932;25.554;2024-02-16T00:33:59;100127.97;;;9.96;46.29
43488;BME280;29078;41.932;25.554;2024-02-16T00:36:25;100125.34;;;9.96;46.68
43488;BME280;29078;41.932;25.554;2024-02-16T00:38:51;100125.34;;;9.96;47.06
43488;BME280;29078;41.932;25.554;2024-02-16T00:41:16;100125.34;;;9.96;46.92
43488;BME280;29078;41.932;25.554;2024-02-16T00:43:42;100125.00;;;9.91;46.48
43488;BME280;29078;41.932;25.554;2024-02-16T00:46:09;100120.53;;;9.92;47.30
43488;BME280;29078;41.932;25.554;2024-02-16T00:48:35;100114.75;;;9.88;46.70
43488;BME280;29078;41.932;25.554;2024-02-16T00:51:00;100116.38;;;9.81;46.92
43488;BME280;29078;41.932;25.554;2024-02-16T00:53:25;100113.44;;;9.84;46.96
43488;BME280;29078;41.932;25.554;2024-02-16T00:55:51;100114.09;;;9.86;47.29
43488;BME280;29078;41.932;25.554;2024-02-16T00:58:16;100109.50;;;9.88;47.16
43488;BME280;29078;41.932;25.554;2024-02-16T01:00:42;100120.88;;;9.88;47.00
43488;BME280;29078;41.932;25.554;2024-02-16T01:03:08;100110.47;;;9.87;47.41
43488;BME280;29078;41.932;25.554;2024-02-16T01:05:34;100117.56;;;9.86;47.01
43488;BME280;29078;41.932;25.554;2024-02-16T01:08:00;100111.78;;;9.83;47.47
43488;BME280;29078;41.932;25.554;2024-02-16T01:10:25;100112.59;;;9.83;47.53
43488;BME280;29078;41.932;25.554;2024-02-16T01:12:51;100115.25;;;9.83;47.44
43488;BME280;29078;41.932;25.554;2024-02-16T01:15:17;100101.56;;;9.80;46.83
43488;BME280;29078;41.932;25.554;2024-02-16T01:17:43;100106.00;;;9.79;47.45
43488;BME280;29078;41.932;25.554;2024-02-16T01:20:08;100104.66;;;9.75;47.05
43488;BME280;29078;41.932;25.554;2024-02-16T01:22:36;100099.19;;;9.69;47.06
43488;BME280;29078;41.932;25.554;2024-02-16T01:25:02;100095.06;;;9.66;47.18
43488;BME280;29078;41.932;25.554;2024-02-16T01:27:27;100095.91;;;9.67;47.32
43488;BME280;29078;41.932;25.554;2024-02-16T01:29:53;100086.00;;;9.69;47.22
43488;BME280;29078;41.932;25.554;2024-02-16T01:32:18;100093.59;;;9.72;47.23
43488;BME280;29078;41.932;25.554;2024-02-16T01:34:43;100087.44;;;9.63;47.46
43488;BME280;29078;41.932;25.554;2024-02-16T01:37:11;100090.91;;;9.64;47.03
43488;BME280;29078;41.932;25.554;2024-02-16T01:39:37;100087.59;;;9.62;47.08
43488;BME280;29078;41.932;25.554;2024-02-16T01:42:02;100082.50;;;9.60;47.04
43488;BME280;29078;41.932;25.554;2024-02-16T01:44:27;100089.56;;;9.60;46.91
43488;BME280;29078;41.932;25.554;2024-02-16T01:46:52;100081.81;;;9.58;46.97
43488;BME280;29078;41.932;25.554;2024-02-16T01:49:18;100080.00;;;9.59;47.44
43488;BME280;29078;41.932;25.554;2024-02-16T01:51:43;100090.56;;;9.59;46.98
43488;BME280;29078;41.932;25.554;2024-02-16T01:54:10;100087.75;;;9.60;47.33
43488;BME280;29078;41.932;25.554;2024-02-16T01:56:36;100089.53;;;9.51;47.28
43488;BME280;29078;41.932;25.554;2024-02-16T01:59:01;100088.50;;;9.44;47.36
43488;BME280;29078;41.932;25.554;2024-02-16T02:01:26;100087.03;;;9.42;47.41
43488;BME280;29078;41.932;25.554;2024-02-16T02:03:52;100090.47;;;9.42;47.13
43488;BME280;29078;41.932;25.554;2024-02-16T02:06:17;100085.88;;;9.44;47.50
43488;BME280;29078;41.932;25.554;2024-02-16T02:08:43;100094.09;;;9.41;47.67
43488;BME280;29078;41.932;25.554;2024-02-16T02:11:08;100084.84;;;9.37;47.57
43488;BME280;29078;41.932;25.554;2024-02-16T02:13:34;100086.66;;;9.37;47.69
43488;BME280;29078;41.932;25.554;2024-02-16T02:15:59;100081.56;;;9.35;47.42
43488;BME280;29078;41.932;25.554;2024-02-16T02:18:25;100087.28;;;9.31;47.73
43488;BME280;29078;41.932;25.554;2024-02-16T02:20:51;100088.69;;;9.17;48.17
43488;BME280;29078;41.932;25.554;2024-02-16T02:23:18;100093.25;;;9.07;47.85
43488;BME280;29078;41.932;25.554;2024-02-16T02:25:44;100089.78;;;9.06;48.08
43488;BME280;29078;41.932;25.554;2024-02-16T02:28:10;100084.66;;;9.05;48.07
43488;BME280;29078;41.932;25.554;2024-02-16T02:30:35;100086.63;;;9.03;48.05
43488;BME280;29078;41.932;25.554;2024-02-16T02:33:00;100089.78;;;9.06;48.41
43488;BME280;29078;41.932;25.554;2024-02-16T02:35:25;100083.53;;;9.07;47.99
43488;BME280;29078;41.932;25.554;2024-02-16T02:37:51;100087.97;;;9.07;48.41
43488;BME280;29078;41.932;25.554;2024-02-16T02:40:16;100099.81;;;9.03;48.40
43488;BME280;29078;41.932;25.554;2024-02-16T02:42:41;100093.72;;;9.02;48.20
43488;BME280;29078;41.932;25.554;2024-02-16T02:45:07;100094.16;;;8.98;48.46
43488;BME280;29078;41.932;25.554;2024-02-16T02:47:32;100094.63;;;8.93;48.49
43488;BME280;29078;41.932;25.554;2024-02-16T02:49:58;100102.53;;;8.93;48.82
43488;BME280;29078;41.932;25.554;2024-02-16T02:52:23;100098.38;;;8.90;48.76
43488;BME280;29078;41.932;25.554;2024-02-16T02:54:48;100096.72;;;8.89;48.42
43488;BME280;29078;41.932;25.554;2024-02-16T02:57:13;100104.09;;;8.86;48.37
43488;BME280;29078;41.932;25.554;2024-02-16T02:59:39;100099.06;;;8.93;48.47
43488;BME280;29078;41.932;25.554;2024-02-16T03:02:04;100104.84;;;8.96;48.34
43488;BME280;29078;41.932;25.554;2024-02-16T03:04:29;100104.56;;;8.99;48.54
43488;BME280;29078;41.932;25.554;2024-02-16T03:06:55;100102.75;;;9.00;48.07
43488;BME280;29078;41.932;25.554;2024-02-16T03:09:20;100114.41;;;8.97;48.38
43488;BME280;29078;41.932;25.554;2024-02-16T03:11:45;100110.13;;;8.96;48.44
43488;BME280;29078;41.932;25.554;2024-02-16T03:14:11;100104.84;;;8.96;48.12
43488;BME280;29078;41.932;25.554;2024-02-16T03:16:36;100109.00;;;8.99;48.13
43488;BME280;29078;41.932;25.554;2024-02-16T03:19:01;100106.16;;;8.92;48.79
43488;BME280;29078;41.932;25.554;2024-02-16T03:21:30;100111.94;;;8.96;48.71
43488;BME280;29078;41.932;25.554;2024-02-16T03:23:55;100117.72;;;8.99;48.39
43488;BME280;29078;41.932;25.554;2024-02-16T03:26:20;100117.72;;;8.99;48.38
43488;BME280;29078;41.932;25.554;2024-02-16T03:28:46;100113.66;;;9.05;48.17
43488;BME280;29078;41.932;25.554;2024-02-16T03:31:21;100117.25;;;9.04;48.06
43488;BME280;29078;41.932;25.554;2024-02-16T03:33:47;100117.94;;;9.06;48.02
43488;BME280;29078;41.932;25.554;2024-02-16T03:36:13;100116.66;;;9.10;48.42
43488;BME280;29078;41.932;25.554;2024-02-16T03:38:42;100112.88;;;9.12;47.83
43488;BME280;29078;41.932;25.554;2024-02-16T03:41:09;100120.63;;;9.14;47.92
43488;BME280;29078;41.932;25.554;2024-02-16T03:43:36;100113.53;;;9.14;47.74
43488;BME280;29078;41.932;25.554;2024-02-16T03:46:01;100119.19;;;9.19;47.60
43488;BME280;29078;41.932;25.554;2024-02-16T03:48:27;100123.78;;;9.17;47.85
43488;BME280;29078;41.932;25.554;2024-02-16T03:50:52;100122.47;;;9.21;48.05
43488;BME280;29078;41.932;25.554;2024-02-16T03:53:17;100136.47;;;9.22;47.38
43488;BME280;29078;41.932;25.554;2024-02-16T03:55:43;100122.00;;;9.26;47.67
43488;BME280;29078;41.932;25.554;2024-02-16T03:58:08;100122.00;;;9.26;47.00
43488;BME280;29078;41.932;25.554;2024-02-16T04:00:33;100128.78;;;9.29;48.03
43488;BME280;29078;41.932;25.554;2024-02-16T04:02:59;100127.66;;;9.31;47.28
43488;BME280;29078;41.932;25.554;2024-02-16T04:05:24;100128.47;;;9.32;47.22
43488;BME280;29078;41.932;25.554;2024-02-16T04:07:55;100132.25;;;9.29;47.02
43488;BME280;29078;41.932;25.554;2024-02-16T04:10:21;100134.88;;;9.29;47.45
43488;BME280;29078;41.932;25.554;2024-02-16T04:12:46;100132.41;;;9.28;47.68
43488;BME280;29078;41.932;25.554;2024-02-16T04:15:11;100127.59;;;9.23;47.58
43488;BME280;29078;41.932;25.554;2024-02-16T04:17:37;100127.22;;;9.18;47.28
43488;BME280;29078;41.932;25.554;2024-02-16T04:20:02;100131.38;;;9.20;47.46
43488;BME280;29078;41.932;25.554;2024-02-16T04:22:27;100120.66;;;9.22;47.91
43488;BME280;29078;41.932;25.554;2024-02-16T04:24:53;100136.16;;;9.25;47.73
43488;BME280;29078;41.932;25.554;2024-02-16T04:27:18;100132.25;;;9.29;47.42
43488;BME280;29078;41.932;25.554;2024-02-16T04:29:43;100133.06;;;9.30;47.42
43488;BME280;29078;41.932;25.554;2024-02-16T04:32:09;100136.63;;;9.20;47.33
43488;BME280;29078;41.932;25.554;2024-02-16T04:34:34;100136.78;;;9.19;47.49
43488;BME280;29078;41.932;25.554;2024-02-16T04:36:59;100132.28;;;9.11;47.10
43488;BME280;29078;41.932;25.554;2024-02-16T04:39:25;100134.41;;;9.08;47.75
43488;BME280;29078;41.932;25.554;2024-02-16T04:41:50;100141.63;;;9.06;47.50
43488;BME280;29078;41.932;25.554;2024-02-16T04:44:16;100138.03;;;9.07;47.58
43488;BME280;29078;41.932;25.554;2024-02-16T04:46:42;100141.50;;;9.07;47.22
43488;BME280;29078;41.932;25.554;2024-02-16T04:49:08;100143.44;;;9.05;47.50
43488;BME280;29078;41.932;25.554;2024-02-16T04:51:33;100152.84;;;9.08;47.61
43488;BME280;29078;41.932;25.554;2024-02-16T04:53:58;100153.00;;;9.06;47.31
43488;BME280;29078;41.932;25.554;2024-02-16T04:56:23;100150.38;;;9.06;47.33
43488;BME280;29078;41.932;25.554;2024-02-16T04:58:49;100150.06;;;9.09;47.31
43488;BME280;29078;41.932;25.554;2024-02-16T05:01:14;100152.31;;;9.04;47.62
43488;BME280;29078;41.932;25.554;2024-02-16T05:03:39;100155.13;;;9.03;47.29
43488;BME280;29078;41.932;25.554;2024-02-16T05:06:08;100155.94;;;9.03;47.55
43488;BME280;29078;41.932;25.554;2024-02-16T05:08:33;100150.81;;;9.02;47.47
43488;BME280;29078;41.932;25.554;2024-02-16T05:10:59;100153.91;;;8.97;47.42
43488;BME280;29078;41.932;25.554;2024-02-16T05:13:25;100158.22;;;8.98;46.96
43488;BME280;29078;41.932;25.554;2024-02-16T05:15:51;100157.84;;;8.93;47.14
43488;BME280;29078;41.932;25.554;2024-02-16T05:18:16;100156.84;;;8.94;47.40
43488;BME280;29078;41.932;25.554;2024-02-16T05:20:42;100162.28;;;8.93;47.08
43488;BME280;29078;41.932;25.554;2024-02-16T05:23:08;100162.56;;;8.89;47.19
43488;BME280;29078;41.932;25.554;2024-02-16T05:25:33;100161.56;;;8.90;47.52
43488;BME280;29078;41.932;25.554;2024-02-16T05:27:58;100164.00;;;8.84;47.01
43488;BME280;29078;41.932;25.554;2024-02-16T05:30:24;100163.47;;;8.80;47.12
43488;BME280;29078;41.932;25.554;2024-02-16T05:32:49;100163.16;;;8.83;47.49
43488;BME280;29078;41.932;25.554;2024-02-16T05:35:14;100175.03;;;8.87;47.42
43488;BME280;29078;41.932;25.554;2024-02-16T05:37:41;100179.34;;;8.88;47.36
43488;BME280;29078;41.932;25.554;2024-02-16T05:40:09;100175.81;;;8.80;47.38
43488;BME280;29078;41.932;25.554;2024-02-16T05:42:47;100186.34;;;8.80;47.19
43488;BME280;29078;41.932;25.554;2024-02-16T05:45:15;100185.34;;;8.81;47.14
43488;BME280;29078;41.932;25.554;2024-02-16T05:47:41;100180.25;;;8.79;46.95
43488;BME280;29078;41.932;25.554;2024-02-16T05:50:08;100188.81;;;8.81;47.55
43488;BME280;29078;41.932;25.554;2024-02-16T05:52:33;100188.66;;;8.83;47.24
43488;BME280;29078;41.932;25.554;2024-02-16T05:54:59;100190.31;;;8.84;47.20
43488;BME280;29078;41.932;25.554;2024-02-16T05:57:24;100196.25;;;8.86;47.25
43488;BME280;29078;41.932;25.554;2024-02-16T05:59:50;100199.72;;;8.86;46.81
43488;BME280;29078;41.932;25.554;2024-02-16T06:02:17;100199.41;;;8.89;47.26
43488;BME280;29078;41.932;25.554;2024-02-16T06:04:42;100200.19;;;8.82;47.14
43488;BME280;29078;41.932;25.554;2024-02-16T06:07:07;100196.94;;;8.88;46.70
43488;BME280;29078;41.932;25.554;2024-02-16T06:09:33;100198.59;;;8.89;47.14
43488;BME280;29078;41.932;25.554;2024-02-16T06:12:03;100192.34;;;8.90;47.29
43488;BME280;29078;41.932;25.554;2024-02-16T06:14:29;100204.00;;;8.87;47.12
43488;BME280;29078;41.932;25.554;2024-02-16T06:16:55;100207.31;;;8.89;46.61
43488;BME280;29078;41.932;25.554;2024-02-16T06:19:20;100199.53;;;8.98;46.74
43488;BME280;29078;41.932;25.554;2024-02-16T06:21:46;100202.16;;;8.98;46.83
43488;BME280;29078;41.932;25.554;2024-02-16T06:24:11;100197.94;;;9.05;46.91
43488;BME280;29078;41.932;25.554;2024-02-16T06:26:36;100198.75;;;9.05;46.45
43488;BME280;29078;41.932;25.554;2024-02-16T06:29:01;100198.59;;;9.07;46.09
43488;BME280;29078;41.932;25.554;2024-02-16T06:31:27;100208.16;;;9.08;45.98
43488;BME280;29078;41.932;25.554;2024-02-16T06:33:52;100211.69;;;9.16;46.49
43488;BME280;29078;41.932;25.554;2024-02-16T06:36:17;100215.81;;;9.19;46.65
43488;BME280;29078;41.932;25.554;2024-02-16T06:38:42;100217.19;;;9.23;46.49
43488;BME280;29078;41.932;25.554;2024-02-16T06:41:08;100217.19;;;9.23;45.86
43488;BME280;29078;41.932;25.554;2024-02-16T06:43:33;100213.09;;;9.29;45.65
43488;BME280;29078;41.932;25.554;2024-02-16T06:45:59;100214.16;;;9.36;46.46
43488;BME280;29078;41.932;25.554;2024-02-16T06:48:24;100218.28;;;9.38;45.57
43488;BME280;29078;41.932;25.554;2024-02-16T06:50:49;100212.09;;;9.47;46.15
43488;BME280;29078;41.932;25.554;2024-02-16T06:53:14;100218.53;;;9.53;45.55
43488;BME280;29078;41.932;25.554;2024-02-16T06:55:40;100216.72;;;9.53;45.17
43488;BME280;29078;41.932;25.554;2024-02-16T06:58:05;100213.63;;;9.58;45.56
43488;BME280;29078;41.932;25.554;2024-02-16T07:00:30;100221.47;;;9.68;46.34
43488;BME280;29078;41.932;25.554;2024-02-16T07:02:55;100218.13;;;9.66;45.53
43488;BME280;29078;41.932;25.554;2024-02-16T07:05:21;100224.78;;;9.70;46.23
43488;BME280;29078;41.932;25.554;2024-02-16T07:07:46;100226.91;;;9.66;45.72
43488;BME280;29078;41.932;25.554;2024-02-16T07:10:11;100224.94;;;9.68;44.97
43488;BME280;29078;41.932;25.554;2024-02-16T07:12:39;100223.63;;;9.72;45.65
43488;BME280;29078;41.932;25.554;2024-02-16T07:15:04;100228.25;;;9.70;45.35
43488;BME280;29078;41.932;25.554;2024-02-16T07:17:29;100234.09;;;9.64;45.43
43488;BME280;29078;41.932;25.554;2024-02-16T07:19:55;100234.25;;;9.63;45.09
43488;BME280;29078;41.932;25.554;2024-02-16T07:22:20;100231.47;;;9.64;46.04
43488;BME280;29078;41.932;25.554;2024-02-16T07:24:45;100233.44;;;9.62;45.59
43488;BME280;29078;41.932;25.554;2024-02-16T07:27:10;100233.94;;;9.66;45.65
43488;BME280;29078;41.932;25.554;2024-02-16T07:29:36;100238.56;;;9.64;45.31
43488;BME280;29078;41.932;25.554;2024-02-16T07:32:03;100234.34;;;9.71;45.78
43488;BME280;29078;41.932;25.554;2024-02-16T07:34:28;100227.41;;;9.70;46.18
43488;BME280;29078;41.932;25.554;2024-02-16T07:36:53;100241.44;;;9.70;46.03
43488;BME280;29078;41.932;25.554;2024-02-16T07:39:20;100237.97;;;9.70;45.56
43488;BME280;29078;41.932;25.554;2024-02-16T07:41:47;100251.31;;;9.68;45.28
43488;BME280;29078;41.932;25.554;2024-02-16T07:44:12;100248.81;;;9.67;45.93
43488;BME280;29078;41.932;25.554;2024-02-16T07:46:41;100246.09;;;9.76;45.97
43488;BME280;29078;41.932;25.554;2024-02-16T07:49:06;100246.13;;;9.84;45.51
43488;BME280;29078;41.932;25.554;2024-02-16T07:51:32;100248.75;;;9.84;45.39
43488;BME280;29078;41.932;25.554;2024-02-16T07:53:57;100258.03;;;9.88;45.61
43488;BME280;29078;41.932;25.554;2024-02-16T07:56:22;100253.25;;;9.92;45.55
43488;BME280;29078;41.932;25.554;2024-02-16T07:58:47;100259.88;;;9.96;45.44
43488;BME280;29078;41.932;25.554;2024-02-16T08:01:13;100253.16;;;10.02;45.76
43488;BME280;29078;41.932;25.554;2024-02-16T08:03:41;100252.88;;;10.13;45.46
43488;BME280;29078;41.932;25.554;2024-02-16T08:06:06;100260.53;;;10.24;45.04
43488;BME280;29078;41.932;25.554;2024-02-16T08:08:31;100252.31;;;10.01;45.47
43488;BME280;29078;41.932;25.554;2024-02-16T08:10:57;100253.19;;;10.10;44.89
43488;BME280;29078;41.932;25.554;2024-02-16T08:13:22;100254.88;;;10.19;44.82
43488;BME280;29078;41.932;25.554;2024-02-16T08:15:47;100256.44;;;10.30;45.38
43488;BME280;29078;41.932;25.554;2024-02-16T08:18:13;100259.75;;;10.32;45.37
43488;BME280;29078;41.932;25.554;2024-02-16T08:20:38;100259.66;;;10.41;45.01
43488;BME280;29078;41.932;25.554;2024-02-16T08:23:04;100254.38;;;10.41;44.74
43488;BME280;29078;41.932;25.554;2024-02-16T08:25:29;100259.94;;;10.38;45.20
43488;BME280;29078;41.932;25.554;2024-02-16T08:27:55;100262.97;;;10.43;45.30
43488;BME280;29078;41.932;25.554;2024-02-16T08:30:20;100254.41;;;10.49;44.64
43488;BME280;29078;41.932;25.554;2024-02-16T08:32:46;100264.00;;;10.59;44.91
43488;BME280;29078;41.932;25.554;2024-02-16T08:35:11;100252.63;;;10.66;44.81
43488;BME280;29078;41.932;25.554;2024-02-16T08:37:39;100260.91;;;10.71;44.43
43488;BME280;29078;41.932;25.554;2024-02-16T08:40:05;100259.94;;;10.80;44.58
43488;BME280;29078;41.932;25.554;2024-02-16T08:42:30;100259.13;;;10.88;44.62
43488;BME280;29078;41.932;25.554;2024-02-16T08:44:56;100265.25;;;10.97;44.21
43488;BME280;29078;41.932;25.554;2024-02-16T08:47:23;100269.88;;;11.03;44.84
43488;BME280;29078;41.932;25.554;2024-02-16T08:49:48;100263.09;;;11.08;44.31
43488;BME280;29078;41.932;25.554;2024-02-16T08:52:14;100266.91;;;11.14;44.35
43488;BME280;29078;41.932;25.554;2024-02-16T08:54:39;100262.66;;;11.21;44.20
43488;BME280;29078;41.932;25.554;2024-02-16T08:57:04;100265.63;;;11.26;44.59
43488;BME280;29078;41.932;25.554;2024-02-16T08:59:30;100266.78;;;11.32;43.97
43488;BME280;29078;41.932;25.554;2024-02-16T09:01:56;100276.38;;;11.33;44.33
43488;BME280;29078;41.932;25.554;2024-02-16T09:04:21;100270.75;;;11.36;43.79
43488;BME280;29078;41.932;25.554;2024-02-16T09:06:46;100269.09;;;11.43;44.50
43488;BME280;29078;41.932;25.554;2024-02-16T09:09:14;100264.78;;;11.50;44.25
43488;BME280;29078;41.932;25.554;2024-02-16T09:11:40;100262.47;;;11.55;43.45
43488;BME280;29078;41.932;25.554;2024-02-16T09:14:05;100264.78;;;11.58;43.81
43488;BME280;29078;41.932;25.554;2024-02-16T09:16:30;100266.59;;;11.66;43.45
43488;BME280;29078;41.932;25.554;2024-02-16T09:18:57;100257.66;;;11.75;43.56
43488;BME280;29078;41.932;25.554;2024-02-16T09:21:23;100263.44;;;11.87;43.43
43488;BME280;29078;41.932;25.554;2024-02-16T09:23:52;100262.63;;;11.94;43.30
43488;BME280;29078;41.932;25.554;2024-02-16T09:26:17;100259.47;;;12.07;42.37
43488;BME280;29078;41.932;25.554;2024-02-16T09:28:43;100260.44;;;12.14;42.17
43488;BME280;29078;41.932;25.554;2024-02-16T09:31:09;100254.28;;;12.22;42.18
43488;BME280;29078;41.932;25.554;2024-02-16T09:33:34;100253.25;;;12.31;42.38
43488;BME280;29078;41.932;25.554;2024-02-16T09:36:02;100256.50;;;12.41;42.64
43488;BME280;29078;41.932;25.554;2024-02-16T09:38:29;100247.56;;;12.42;41.64
43488;BME280;29078;41.932;25.554;2024-02-16T09:40:55;100241.94;;;12.45;41.99
43488;BME280;29078;41.932;25.554;2024-02-16T09:43:24;100249.69;;;12.47;40.57
43488;BME280;29078;41.932;25.554;2024-02-16T09:45:52;100245.88;;;12.49;41.50
43488;BME280;29078;41.932;25.554;2024-02-16T09:48:17;100235.81;;;12.45;41.00
43488;BME280;29078;41.932;25.554;2024-02-16T09:50:42;100245.88;;;12.49;42.20
43488;BME280;29078;41.932;25.554;2024-02-16T09:53:07;100249.66;;;12.55;41.95
43488;BME280;29078;41.932;25.554;2024-02-16T09:55:34;100243.72;;;12.53;41.00
43488;BME280;29078;41.932;25.554;2024-02-16T09:58:00;100245.56;;;12.44;40.87
43488;BME280;29078;41.932;25.554;2024-02-16T10:00:25;100248.41;;;12.43;40.49
43488;BME280;29078;41.932;25.554;2024-02-16T10:02:51;100244.75;;;12.44;40.41
43488;BME280;29078;41.932;25.554;2024-02-16T10:05:17;100238.25;;;12.54;40.97
43488;BME280;29078;41.932;25.554;2024-02-16T10:07:43;100238.53;;;12.59;41.14
43488;BME280;29078;41.932;25.554;2024-02-16T10:10:21;100237.53;;;12.68;40.88
43488;BME280;29078;41.932;25.554;2024-02-16T10:12:47;100230.00;;;12.80;41.52
43488;BME280;29078;41.932;25.554;2024-02-16T10:15:18;100240.38;;;12.90;40.16
43488;BME280;29078;41.932;25.554;2024-02-16T10:17:44;100226.72;;;13.01;40.13
43488;BME280;29078;41.932;25.554;2024-02-16T10:20:09;100231.41;;;13.14;40.57
43488;BME280;29078;41.932;25.554;2024-02-16T10:22:36;100226.19;;;13.28;41.50
43488;BME280;29078;41.932;25.554;2024-02-16T10:25:08;100214.94;;;13.26;39.81
43488;BME280;29078;41.932;25.554;2024-02-16T10:27:36;100213.41;;;13.32;41.14
43488;BME280;29078;41.932;25.554;2024-02-16T10:30:02;100209.06;;;13.39;41.57
43488;BME280;29078;41.932;25.554;2024-02-16T10:32:27;100217.41;;;13.51;40.71
43488;BME280;29078;41.932;25.554;2024-02-16T10:34:53;100210.66;;;13.63;40.62
43488;BME280;29078;41.932;25.554;2024-02-16T10:37:19;100201.78;;;13.71;39.50
43488;BME280;29078;41.932;25.554;2024-02-16T10:39:44;100205.63;;;13.83;40.72
43488;BME280;29078;41.932;25.554;2024-02-16T10:42:10;100202.59;;;13.86;40.32
43488;BME280;29078;41.932;25.554;2024-02-16T10:44:36;100200.13;;;13.99;39.55
43488;BME280;29078;41.932;25.554;2024-02-16T10:47:02;100202.31;;;14.10;39.71
43488;BME280;29078;41.932;25.554;2024-02-16T10:49:27;100193.81;;;14.15;39.10
43488;BME280;29078;41.932;25.554;2024-02-16T10:51:54;100198.22;;;14.22;40.12
43488;BME280;29078;41.932;25.554;2024-02-16T10:54:25;100199.31;;;14.28;40.07
43488;BME280;29078;41.932;25.554;2024-02-16T10:56:53;100191.78;;;14.31;38.95
43488;BME280;29078;41.932;25.554;2024-02-16T10:59:18;100178.13;;;14.35;38.91
43488;BME280;29078;41.932;25.554;2024-02-16T11:01:44;100190.56;;;14.49;39.22
43488;BME280;29078;41.932;25.554;2024-02-16T11:04:19;100180.47;;;14.59;39.82
43488;BME280;29078;41.932;25.554;2024-02-16T11:09:11;100182.88;;;14.54;39.84
43488;BME280;29078;41.932;25.554;2024-02-16T11:11:37;100179.19;;;14.55;38.99
43488;BME280;29078;41.932;25.554;2024-02-16T11:14:02;100180.28;;;14.60;38.90
43488;BME280;29078;41.932;25.554;2024-02-16T11:16:28;100168.63;;;14.61;38.89
43488;BME280;29078;41.932;25.554;2024-02-16T11:18:54;100167.44;;;14.64;38.73
43488;BME280;29078;41.932;25.554;2024-02-16T11:21:21;100163.38;;;14.68;39.51
43488;BME280;29078;41.932;25.554;2024-02-16T11:23:46;100168.72;;;14.68;38.67
43488;BME280;29078;41.932;25.554;2024-02-16T11:26:13;100169.78;;;14.74;38.86
43488;BME280;29078;41.932;25.554;2024-02-16T11:28:40;100163.97;;;14.63;38.10
43488;BME280;29078;41.932;25.554;2024-02-16T11:31:05;100161.88;;;14.59;38.28
43488;BME280;29078;41.932;25.554;2024-02-16T11:33:32;100162.31;;;14.62;39.56
43488;BME280;29078;41.932;25.554;2024-02-16T11:35:58;100153.25;;;14.57;39.23
43488;BME280;29078;41.932;25.554;2024-02-16T11:38:24;100163.19;;;14.48;38.82
43488;BME280;29078;41.932;25.554;2024-02-16T11:40:56;100163.56;;;14.45;38.98
43488;BME280;29078;41.932;25.554;2024-02-16T11:43:22;100152.38;;;14.35;38.85
43488;BME280;29078;41.932;25.554;2024-02-16T11:45:48;100153.31;;;14.27;39.67
43488;BME280;29078;41.932;25.554;2024-02-16T11:48:18;100147.75;;;14.22;39.25
43488;BME280;29078;41.932;25.554;2024-02-16T11:50:43;100154.34;;;14.26;39.05
43488;BME280;29078;41.932;25.554;2024-02-16T11:53:09;100147.44;;;14.32;39.43
43488;BME280;29078;41.932;25.554;2024-02-16T11:55:34;100148.63;;;14.44;39.21
43488;BME280;29078;41.932;25.554;2024-02-16T11:58:00;100148.88;;;14.49;39.79
43488;BME280;29078;41.932;25.554;2024-02-16T12:00:25;100145.22;;;14.50;39.20
43488;BME280;29078;41.932;25.554;2024-02-16T12:02:58;100144.84;;;14.53;39.92
43488;BME280;29078;41.932;25.554;2024-02-16T12:05:23;100147.69;;;14.52;39.93
43488;BME280;29078;41.932;25.554;2024-02-16T12:07:49;100148.81;;;14.43;39.87
43488;BME280;29078;41.932;25.554;2024-02-16T12:10:14;100146.25;;;14.35;39.68
43488;BME280;29078;41.932;25.554;2024-02-16T12:12:39;100149.47;;;14.30;39.69
43488;BME280;29078;41.932;25.554;2024-02-16T12:15:07;100138.22;;;14.28;40.13
43488;BME280;29078;41.932;25.554;2024-02-16T12:17:33;100135.94;;;14.25;40.12
43488;BME280;29078;41.932;25.554;2024-02-16T12:19:58;100136.13;;;14.23;40.45
43488;BME280;29078;41.932;25.554;2024-02-16T12:22:23;100141.81;;;14.20;40.61
43488;BME280;29078;41.932;25.554;2024-02-16T12:24:49;100138.31;;;14.20;40.19
43488;BME280;29078;41.932;25.554;2024-02-16T12:27:15;100124.97;;;14.13;40.45
43488;BME280;29078;41.932;25.554;2024-02-16T12:29:40;100139.97;;;14.06;39.94
43488;BME280;29078;41.932;25.554;2024-02-16T12:32:06;100131.63;;;14.09;39.94
43488;BME280;29078;41.932;25.554;2024-02-16T12:34:31;100132.25;;;14.11;40.33
43488;BME280;29078;41.932;25.554;2024-02-16T12:36:56;100128.78;;;14.11;41.01
43488;BME280;29078;41.932;25.554;2024-02-16T12:39:22;100125.50;;;14.09;40.96